createdAt,value
2022-10-04T00:00:40.747Z,2.33
2022-10-04T00:04:40.573Z,2.2
2022-10-04T00:08:40.878Z,2.95
2022-10-04T00:12:40.492Z,1.5
2022-10-04T00:16:40.839Z,2.1
2022-10-04T00:20:40.595Z,2.22
2022-10-04T00:24:40.495Z,1.77
2022-10-04T00:28:40.506Z,1.7
2022-10-04T00:32:40.567Z,2.12
2022-10-04T00:36:41.179Z,2.2
2022-10-04T00:40:40.520Z,1.85
2022-10-04T00:44:40.498Z,2.7
2022-10-04T00:48:40.526Z,1.42
2022-10-04T00:52:40.809Z,2.35
2022-10-04T00:56:41.030Z,2.33
2022-10-04T01:00:40.701Z,2
2022-10-04T01:04:40.514Z,1.8
2022-10-04T01:08:40.579Z,2.47
2022-10-04T01:12:39.506Z,2.95
2022-10-04T01:16:40.764Z,2.22
2022-10-04T01:20:40.817Z,1.67
2022-10-04T01:24:40.359Z,1.42
2022-10-04T01:28:40.310Z,2.37
2022-10-04T01:32:40.846Z,2.35
2022-10-04T01:36:40.835Z,2.87
2022-10-04T01:40:40.605Z,3.08
2022-10-04T01:44:40.452Z,2.75
2022-10-04T01:48:40.858Z,1.73
2022-10-04T01:52:40.684Z,1.9
2022-10-04T01:56:40.373Z,2.1
2022-10-04T02:00:40.678Z,1.75
2022-10-04T02:04:40.552Z,1.73
2022-10-04T02:08:40.768Z,3.33
2022-10-04T02:12:40.494Z,1.65
2022-10-04T02:16:40.561Z,2.15
2022-10-04T02:20:40.981Z,1.77
2022-10-04T02:24:40.527Z,2.15
2022-10-04T02:28:41.027Z,2.7
2022-10-04T02:32:40.499Z,1.87
2022-10-04T02:36:40.700Z,2.6
2022-10-04T02:40:39.570Z,2.08
2022-10-04T02:44:40.644Z,1.7
2022-10-04T02:48:40.684Z,2.05
2022-10-04T02:52:40.472Z,2.22
2022-10-04T02:56:40.572Z,2.22
2022-10-04T03:00:40.690Z,2.95
2022-10-04T03:04:40.613Z,1.92
2022-10-04T03:08:40.781Z,2.42
2022-10-04T03:12:40.534Z,2.25
2022-10-04T03:16:40.594Z,1.83
2022-10-04T03:20:40.515Z,2.05
2022-10-04T03:24:40.408Z,2.2
2022-10-04T03:28:40.729Z,2.95
2022-10-04T03:32:40.694Z,2.4
2022-10-04T03:36:40.510Z,2.83
2022-10-04T03:40:40.519Z,2.1
2022-10-04T03:44:40.570Z,2.17
2022-10-04T03:48:40.550Z,2.4
2022-10-04T03:52:40.780Z,2.28
2022-10-04T03:56:40.978Z,2.33
2022-10-04T04:00:40.883Z,3.1
2022-10-04T04:04:40.571Z,2.2
2022-10-04T04:08:40.429Z,2
2022-10-04T04:12:40.503Z,2.87
2022-10-04T04:16:40.349Z,1.83
2022-10-04T04:20:40.469Z,2.58
2022-10-04T04:24:40.470Z,2.97
2022-10-04T04:28:40.561Z,2.7
2022-10-04T04:32:40.570Z,2.15
2022-10-04T04:36:40.125Z,3.37
2022-10-04T04:40:39.695Z,2.58
2022-10-04T04:44:40.552Z,2.22
2022-10-04T04:48:40.295Z,2.75
2022-10-04T04:52:40.666Z,2.4
2022-10-04T04:56:41.144Z,2.03
2022-10-04T05:00:40.348Z,1.98
2022-10-04T05:04:40.630Z,2.6
2022-10-04T05:08:41.534Z,2.22
2022-10-04T05:12:40.968Z,2.3
2022-10-04T05:16:40.380Z,2.65
2022-10-04T05:20:40.814Z,2.83
2022-10-04T05:24:40.471Z,3.25
2022-10-04T05:28:40.541Z,2.33
2022-10-04T05:32:40.836Z,3.45
2022-10-04T05:36:40.736Z,3.2
2022-10-04T05:40:40.494Z,2.85
2022-10-04T05:44:40.886Z,2.6
2022-10-04T05:48:40.507Z,2.4
2022-10-04T05:52:39.519Z,2.35
2022-10-04T05:56:40.895Z,2.47
2022-10-04T06:00:40.694Z,2.78
2022-10-04T06:04:40.906Z,2.87
2022-10-04T06:08:40.545Z,2.33
2022-10-04T06:12:44.270Z,2.6
2022-10-04T06:16:40.536Z,2.65
2022-10-04T06:20:40.625Z,2.33
2022-10-04T06:24:40.535Z,2.85
2022-10-04T06:28:40.977Z,2.33
2022-10-04T06:32:40.604Z,2.53
2022-10-04T06:36:40.701Z,3.53
2022-10-04T06:40:41.040Z,2.58
2022-10-04T06:44:44.288Z,2.62
2022-10-04T06:48:40.632Z,2.85
2022-10-04T06:52:40.423Z,2.4
2022-10-04T06:56:39.971Z,2.85
2022-10-04T07:00:40.858Z,4.12
2022-10-04T07:05:06.963Z,3.47
2022-10-04T07:08:40.966Z,2.62
2022-10-04T07:12:40.529Z,1.87
2022-10-04T07:16:39.805Z,2.2
2022-10-04T07:20:41.360Z,2.15
2022-10-04T07:24:40.495Z,2.1
2022-10-04T07:28:40.486Z,2.28
2022-10-04T07:32:41.225Z,1.58
2022-10-04T07:36:40.586Z,2.12
2022-10-04T07:40:40.662Z,2.42
2022-10-04T07:44:40.518Z,1.7
2022-10-04T07:48:40.584Z,2.3
2022-10-04T07:52:40.533Z,7
2022-10-04T07:56:39.714Z,1.83
2022-10-04T08:00:41.158Z,1.42
2022-10-04T08:04:40.417Z,1.5
2022-10-04T08:08:40.673Z,1.52
2022-10-04T08:12:40.503Z,1.83
2022-10-04T08:16:41.325Z,3.37
2022-10-04T08:20:40.484Z,1.75
2022-10-04T08:24:40.425Z,1.67
2022-10-04T08:28:40.434Z,1.7
2022-10-04T08:32:40.260Z,1.87
2022-10-04T08:36:41.064Z,2.58
2022-10-04T08:40:40.895Z,1.15
2022-10-04T08:44:40.534Z,1.73
2022-10-04T08:48:40.590Z,1.87
2022-10-04T08:52:41.108Z,2.75
2022-10-04T08:56:40.213Z,1.3
2022-10-04T09:00:40.988Z,2.1
2022-10-04T09:04:40.670Z,2.12
2022-10-04T09:08:40.413Z,2.03
2022-10-04T09:12:40.787Z,2.28
2022-10-04T09:16:40.896Z,2.17
2022-10-04T09:20:40.674Z,1.67
2022-10-04T09:24:40.975Z,1.3
2022-10-04T09:28:40.850Z,1.9
2022-10-04T09:32:40.532Z,1.7
2022-10-04T09:36:39.770Z,2.15
2022-10-04T09:40:44.193Z,1.42
2022-10-04T09:44:40.543Z,1.67
2022-10-04T09:48:40.573Z,1.8
2022-10-04T09:52:40.500Z,2.03
2022-10-04T09:56:40.997Z,1.37
2022-10-04T10:00:40.664Z,1
2022-10-04T10:04:40.525Z,1.95
2022-10-04T10:08:40.554Z,3.33
2022-10-04T10:12:40.576Z,2.78
2022-10-04T10:16:40.970Z,1.83
2022-10-04T10:20:40.535Z,1.6
2022-10-04T10:24:40.602Z,1.73
2022-10-04T10:28:40.532Z,1.55
2022-10-04T10:32:40.446Z,1.85
2022-10-04T10:36:40.560Z,2
2022-10-04T10:40:40.882Z,1.85
2022-10-04T10:44:40.457Z,1.9
2022-10-04T10:48:40.757Z,1.58
2022-10-04T10:52:40.247Z,2.65
2022-10-04T10:56:39.665Z,1.65
2022-10-04T11:00:40.952Z,1.95
2022-10-04T11:04:40.646Z,1.5
2022-10-04T11:08:40.525Z,2.28
2022-10-04T11:12:40.232Z,1.65
2022-10-04T11:16:40.908Z,1.9
2022-10-04T11:20:40.566Z,1.65
2022-10-04T11:24:40.616Z,1.55
2022-10-04T11:28:41.143Z,1.8
2022-10-04T11:32:41.218Z,1.6
2022-10-04T11:36:39.843Z,1.7
2022-10-04T11:40:39.305Z,1.1
2022-10-04T11:44:40.349Z,1.6
2022-10-04T11:48:40.666Z,1.3
2022-10-04T11:52:40.537Z,1.17
2022-10-04T11:56:40.589Z,1.5
2022-10-04T12:00:41.328Z,2.5
2022-10-04T12:04:40.969Z,1.2
2022-10-04T12:08:40.873Z,1.08
2022-10-04T12:12:40.432Z,1.33
2022-10-04T12:16:40.831Z,1.17
2022-10-04T12:20:40.505Z,1.33
2022-10-04T12:24:40.479Z,1.48
2022-10-04T12:28:40.492Z,1.55
2022-10-04T12:32:41.179Z,1.05
2022-10-04T12:36:39.734Z,0.85
2022-10-04T12:40:40.551Z,1.08
2022-10-04T12:44:40.564Z,0.95
2022-10-04T12:48:40.545Z,0.88
2022-10-04T12:52:40.481Z,0.8
2022-10-04T12:56:39.837Z,0.9
2022-10-04T13:00:40.629Z,0.7
2022-10-04T13:04:40.843Z,0.73
2022-10-04T13:08:40.416Z,1.23
2022-10-04T13:12:41.178Z,0.88
2022-10-04T13:20:40.073Z,1.35
2022-10-04T13:24:40.370Z,1
2022-10-04T13:28:39.777Z,0.8
2022-10-04T13:32:40.476Z,1.42
2022-10-04T13:36:40.828Z,0.93
2022-10-04T13:40:40.386Z,1.23
2022-10-04T13:44:40.341Z,0.95
2022-10-04T13:48:41.282Z,0.82
2022-10-04T13:52:40.551Z,1
2022-10-04T13:56:40.813Z,1.02
2022-10-04T14:00:40.622Z,1.52
2022-10-04T14:04:40.566Z,1.35
2022-10-04T14:08:40.443Z,1.55
2022-10-04T14:12:40.662Z,1.6
2022-10-04T14:16:41.245Z,1.65
2022-10-04T14:20:41.042Z,1.27
2022-10-04T14:24:40.478Z,1.6
2022-10-04T14:28:40.486Z,1.27
2022-10-04T14:32:41.276Z,1.1
2022-10-04T14:36:40.233Z,1.5
2022-10-04T14:40:41.156Z,1.3
2022-10-04T14:44:44.898Z,1.2
2022-10-04T14:48:40.435Z,1
2022-10-04T14:52:40.569Z,1.35
2022-10-04T14:56:40.330Z,0.88
2022-10-04T15:00:40.561Z,1.3
2022-10-04T15:04:41.286Z,1.02
2022-10-04T15:08:39.911Z,1.4
2022-10-04T15:13:09.328Z,1.55
2022-10-04T15:16:40.705Z,0.9
2022-10-04T15:20:40.548Z,1.27
2022-10-04T15:24:40.767Z,1.35
2022-10-04T15:28:40.919Z,1.02
2022-10-04T15:32:40.344Z,1.17
2022-10-04T15:36:40.314Z,1
2022-10-04T15:40:40.690Z,1.42
2022-10-04T15:44:40.590Z,1.27
2022-10-04T15:48:40.624Z,0.88
2022-10-04T15:52:40.514Z,1.62
2022-10-04T15:56:39.689Z,1.45
2022-10-04T16:00:40.789Z,1.1
2022-10-04T16:04:40.476Z,0.98
2022-10-04T16:08:40.503Z,1.1
2022-10-04T16:12:40.331Z,1.02
2022-10-04T16:16:40.584Z,1.5
2022-10-04T16:20:39.656Z,1.6
2022-10-04T16:24:40.822Z,1.4
2022-10-04T16:28:40.312Z,0.95
2022-10-04T16:32:40.573Z,1.45
2022-10-04T16:36:40.868Z,1.6
2022-10-04T16:40:39.287Z,1.6
2022-10-04T16:44:40.657Z,1.67
2022-10-04T16:48:40.444Z,1.7
2022-10-04T16:52:40.522Z,1.55
2022-10-04T16:56:43.435Z,2.12
2022-10-04T17:00:40.723Z,1.62
2022-10-04T17:04:40.674Z,1.9
2022-10-04T17:08:40.513Z,2.1
2022-10-04T17:12:41.063Z,3.03
2022-10-04T17:16:40.527Z,3.75
2022-10-04T17:20:40.503Z,3.53
2022-10-04T17:24:40.455Z,4.68
2022-10-04T17:28:40.389Z,5
2022-10-04T17:32:40.426Z,4.93
2022-10-04T17:36:40.842Z,5.6
2022-10-04T17:40:40.625Z,5.4
2022-10-04T17:44:40.476Z,5.5
2022-10-04T17:48:40.550Z,5.35
2022-10-04T17:52:40.579Z,3.97
2022-10-04T17:56:40.487Z,4.53
2022-10-04T18:00:40.798Z,4.62
2022-10-04T18:04:40.417Z,5.2
2022-10-04T18:08:40.536Z,5.4
2022-10-04T18:12:41.079Z,6
2022-10-04T18:16:40.627Z,6.05
2022-10-04T18:20:40.450Z,5.82
2022-10-04T18:24:40.451Z,5.37
2022-10-04T18:28:40.710Z,5.03
2022-10-04T18:32:40.533Z,5.37
2022-10-04T18:36:40.453Z,6.05
2022-10-04T18:40:40.525Z,6.07
2022-10-04T18:44:40.526Z,5.85
2022-10-04T18:48:40.628Z,7.03
2022-10-04T18:52:40.625Z,7.7
2022-10-04T18:56:40.546Z,6.6
2022-10-04T19:00:40.874Z,9.05
2022-10-04T19:04:40.590Z,7.75
2022-10-04T19:08:40.924Z,8.05
2022-10-04T19:12:40.475Z,7.75
2022-10-04T19:16:40.718Z,8.02
2022-10-04T19:20:40.315Z,7.9
2022-10-04T19:24:40.444Z,6.9
2022-10-04T19:28:40.378Z,7.62
2022-10-04T19:32:40.482Z,6.72
2022-10-04T19:36:40.855Z,6.03
2022-10-04T19:40:40.441Z,6
2022-10-04T19:44:39.457Z,6.22
2022-10-04T19:48:40.466Z,6.15
2022-10-04T19:52:40.499Z,6.4
2022-10-04T19:56:40.295Z,5.9
2022-10-04T20:00:40.523Z,20.8
2022-10-04T20:04:40.687Z,10.6
2022-10-04T20:08:40.505Z,6.28
2022-10-04T20:12:40.528Z,7.43
2022-10-04T20:16:40.657Z,6.12
2022-10-04T20:20:39.906Z,6.32
2022-10-04T20:24:40.946Z,7.6
2022-10-04T20:28:40.639Z,6.78
2022-10-04T20:32:40.474Z,6
2022-10-04T20:36:40.557Z,6.62
2022-10-04T20:40:40.580Z,8.3
2022-10-04T20:44:40.435Z,6.8
2022-10-04T20:48:40.464Z,5.95
2022-10-04T20:52:40.493Z,6.43
2022-10-04T20:56:40.333Z,6.3
2022-10-04T21:00:40.452Z,7.8
2022-10-04T21:04:40.487Z,6.28
2022-10-04T21:08:40.766Z,6.6
2022-10-04T21:12:40.499Z,6.82
2022-10-04T21:16:41.242Z,7.2
2022-10-04T21:20:40.404Z,7.3
2022-10-04T21:24:40.504Z,7.15
2022-10-04T21:28:40.708Z,6.4
2022-10-04T21:32:40.389Z,7.07
2022-10-04T21:36:40.442Z,7.18
2022-10-04T21:40:40.495Z,6.87
2022-10-04T21:44:40.517Z,6.57
2022-10-04T21:48:40.397Z,7.18
2022-10-04T21:52:40.469Z,6.45
2022-10-04T21:56:40.491Z,6.07
2022-10-04T22:00:39.898Z,6.9
2022-10-04T22:04:40.838Z,6.43
2022-10-04T22:08:40.466Z,6.47
2022-10-04T22:12:40.535Z,6.2
2022-10-04T22:16:40.533Z,5.72
2022-10-04T22:20:40.450Z,6.05
2022-10-04T22:24:40.157Z,5.7
2022-10-04T22:28:40.485Z,6.25
2022-10-04T22:32:40.525Z,6.55
2022-10-04T22:36:40.564Z,6.12
2022-10-04T22:40:40.535Z,6
2022-10-04T22:44:40.574Z,5.65
2022-10-04T22:48:39.520Z,5.9
2022-10-04T22:52:40.447Z,5.53
2022-10-04T22:56:40.467Z,6.15
2022-10-04T23:00:40.301Z,5.55
2022-10-04T23:04:40.528Z,6.07
2022-10-04T23:08:40.477Z,6.9
2022-10-04T23:12:40.796Z,5.57
2022-10-04T23:16:40.798Z,5.18
2022-10-04T23:20:40.469Z,6.07
2022-10-04T23:24:40.455Z,4.62
2022-10-04T23:28:40.490Z,5.3
2022-10-04T23:32:40.459Z,5.9
2022-10-04T23:36:40.321Z,5.1
2022-10-04T23:40:39.822Z,5.1
2022-10-04T23:44:40.555Z,5.07
2022-10-04T23:48:40.732Z,4.87
2022-10-04T23:52:40.559Z,4.45
2022-10-04T23:56:40.569Z,5.05
